Time;durP1;ratioP1;P1;durP2;ratioP2;P2;SDS_P1;SDS_P2;PMS_P1;PMS_P2;Temp;Humidity;BMP_temperature;BMP_pressure;BME280_temperature;BME280_humidity;BME280_pressure;Samples;Min_cycle;Max_cycle;Signal;HPM_P1;HPM_P2
2021/01/24 00:02:16;;;;;;;5.23;4.83;;;5.80;41.40;;;;;;10483028;28;20228;-73
2021/01/24 00:07:18;;;;;;;5.43;5.03;;;5.70;41.20;;;;;;10471945;28;20335;-73
2021/01/24 00:12:20;;;;;;;5.63;5.13;;;5.70;41.80;;;;;;10488508;28;20228;-74
2021/01/24 00:17:23;;;;;;;5.20;4.80;;;5.70;41.10;;;;;;10475646;28;20224;-73
2021/01/24 00:22:26;;;;;;;5.50;5.10;;;5.60;41.10;;;;;;10469617;28;20239;-73
2021/01/24 00:27:28;;;;;;;5.77;5.27;;;5.60;41.00;;;;;;10460319;28;20224;-73
2021/01/24 00:32:31;;;;;;;6.03;5.43;;;5.50;41.00;;;;;;10482547;28;20227;-73
2021/01/24 00:37:34;;;;;;;5.20;4.80;;;5.50;41.10;;;;;;10485560;28;20230;-73
2021/01/24 00:42:37;;;;;;;4.90;4.50;;;5.40;41.10;;;;;;10475373;28;20224;-74
2021/01/24 00:47:40;;;;;;;5.40;4.93;;;5.40;41.20;;;;;;10469105;28;20221;-73
2021/01/24 00:52:42;;;;;;;5.40;4.90;;;5.20;41.40;;;;;;10488135;28;20708;-73
2021/01/24 00:57:45;;;;;;;4.93;4.53;;;5.10;41.50;;;;;;10485638;28;20238;-73
2021/01/24 01:02:48;;;;;;;5.37;4.70;;;5.00;41.70;;;;;;10476895;28;20224;-73
2021/01/24 01:07:50;;;;;;;5.13;4.73;;;4.90;42.20;;;;;;10486494;28;20250;-73
2021/01/24 01:12:52;;;;;;;5.00;4.50;;;4.90;42.20;;;;;;10480735;28;20228;-73
2021/01/24 01:17:56;;;;;;;4.67;4.27;;;4.80;42.60;;;;;;10481811;28;20229;-73
2021/01/24 01:22:58;;;;;;;4.63;4.23;;;4.80;42.60;;;;;;10477708;28;20283;-73
2021/01/24 01:28:00;;;;;;;4.60;4.00;;;4.80;42.60;;;;;;10480610;28;20331;-73
2021/01/24 01:33:03;;;;;;;4.63;4.23;;;4.90;42.60;;;;;;10482121;28;20217;-73
2021/01/24 01:38:06;;;;;;;4.70;4.30;;;4.90;42.90;;;;;;10482292;28;20715;-73
2021/01/24 01:43:08;;;;;;;4.97;4.37;;;5.00;42.70;;;;;;10484030;28;20232;-73
2021/01/24 01:48:11;;;;;;;7.60;6.03;;;5.00;42.70;;;;;;10475233;28;20323;-73
2021/01/24 01:53:14;;;;;;;4.33;3.93;;;5.10;43.10;;;;;;10479399;28;20224;-73
2021/01/24 01:58:16;;;;;;;5.73;4.10;;;5.10;42.90;;;;;;10480832;28;20306;-74
2021/01/24 02:03:32;;;;;;;5.63;4.13;;;5.10;43.20;;;;;;10467422;28;20243;-74
2021/01/24 02:08:41;;;;;;;6.47;4.47;;;5.10;43.90;;;;;;10478530;28;20227;-73
2021/01/24 02:13:55;;;;;;;4.27;3.87;;;5.20;43.70;;;;;;10472730;28;20603;-73
2021/01/24 02:18:59;;;;;;;6.27;4.43;;;5.20;43.90;;;;;;10481523;28;20228;-74
2021/01/24 02:24:04;;;;;;;5.17;4.27;;;5.20;43.60;;;;;;10479935;28;20569;-74
2021/01/24 02:29:14;;;;;;;5.07;4.13;;;5.20;43.50;;;;;;10480626;28;20259;-73
2021/01/24 02:34:20;;;;;;;4.03;3.10;;;5.30;43.80;;;;;;10483196;28;20224;-73
2021/01/24 02:39:23;;;;;;;3.23;2.40;;;5.30;43.70;;;;;;10491704;28;20243;-73
2021/01/24 02:44:28;;;;;;;1.80;1.70;;;5.40;43.60;;;;;;10479059;28;20232;-73
2021/01/24 02:49:33;;;;;;;1.60;1.50;;;5.40;43.90;;;;;;10486530;28;20230;-73
2021/01/24 02:54:37;;;;;;;1.30;1.20;;;5.50;43.80;;;;;;10490175;28;20260;-73
2021/01/24 02:59:40;;;;;;;1.20;1.20;;;5.50;43.80;;;;;;10485825;28;20226;-73
2021/01/24 03:04:43;;;;;;;1.30;1.00;;;5.60;43.60;;;;;;10481649;28;20421;-73
2021/01/24 03:09:45;;;;;;;1.20;1.10;;;5.60;43.70;;;;;;10484987;28;20224;-73
2021/01/24 03:14:48;;;;;;;1.00;1.00;;;5.70;43.80;;;;;;10480270;28;20630;-74
2021/01/24 03:19:52;;;;;;;0.90;0.90;;;5.80;43.80;;;;;;10478519;28;20230;-73
2021/01/24 03:24:55;;;;;;;1.00;1.00;;;5.80;43.70;;;;;;10484838;28;20246;-73
2021/01/24 03:29:59;;;;;;;2.30;1.27;;;5.90;43.50;;;;;;10485216;28;20221;-73
2021/01/24 03:35:03;;;;;;;1.20;1.20;;;5.90;43.50;;;;;;10491225;28;20324;-72
2021/01/24 03:40:07;;;;;;;1.00;1.00;;;5.90;43.50;;;;;;10472239;28;20716;-72
2021/01/24 03:45:10;;;;;;;1.10;1.10;;;5.90;43.50;;;;;;10491743;28;20246;-73
2021/01/24 03:50:13;;;;;;;1.13;1.03;;;5.90;43.50;;;;;;10478550;28;20643;-73
2021/01/24 03:55:16;;;;;;;1.07;1.07;;;5.90;43.50;;;;;;10479474;28;20232;-73
2021/01/24 04:00:19;;;;;;;0.87;0.87;;;5.90;43.30;;;;;;10487000;28;20226;-73
2021/01/24 04:05:22;;;;;;;1.00;1.00;;;5.90;43.30;;;;;;10477713;28;20247;-73
2021/01/24 04:10:24;;;;;;;1.10;1.10;;;5.80;43.30;;;;;;10488149;28;20220;-73
2021/01/24 04:15:26;;;;;;;1.07;1.07;;;5.80;44.00;;;;;;10487261;28;20236;-73
2021/01/24 04:20:29;;;;;;;1.00;1.00;;;5.80;43.30;;;;;;10484541;28;20219;-73
2021/01/24 04:25:32;;;;;;;1.00;1.00;;;5.80;43.40;;;;;;10490329;28;20830;-73
2021/01/24 04:30:34;;;;;;;1.10;1.00;;;5.80;43.40;;;;;;10483739;28;20213;-73
2021/01/24 04:35:37;;;;;;;0.90;0.90;;;5.80;43.40;;;;;;10473912;28;20220;-73
2021/01/24 04:40:40;;;;;;;1.00;0.97;;;5.80;43.40;;;;;;10478760;28;20212;-73
2021/01/24 04:45:42;;;;;;;0.90;0.90;;;5.80;43.40;;;;;;10474123;28;20229;-73
2021/01/24 04:50:46;;;;;;;0.93;0.93;;;5.80;43.40;;;;;;10476329;28;20247;-73
2021/01/24 04:55:50;;;;;;;0.80;0.80;;;5.70;43.30;;;;;;10478308;28;20220;-73
2021/01/24 05:00:53;;;;;;;0.83;0.77;;;5.70;43.30;;;;;;10477188;28;20228;-73
2021/01/24 05:05:56;;;;;;;1.73;1.00;;;5.80;43.40;;;;;;10477628;28;20224;-73
2021/01/24 05:11:04;;;;;;;0.80;0.80;;;5.80;43.40;;;;;;10483193;28;20227;-73
2021/01/24 05:16:07;;;;;;;0.90;0.90;;;5.80;43.60;;;;;;10476992;28;20228;-72
2021/01/24 05:21:11;;;;;;;0.70;0.70;;;5.80;43.60;;;;;;10488224;28;20224;-72
2021/01/24 05:26:13;;;;;;;0.77;0.77;;;5.80;43.60;;;;;;10483600;28;20669;-72
2021/01/24 05:31:21;;;;;;;0.53;0.53;;;5.70;43.30;;;;;;10477443;28;20220;-72
2021/01/24 05:36:25;;;;;;;0.80;0.80;;;5.70;43.60;;;;;;10483674;28;20622;-72
2021/01/24 05:41:30;;;;;;;0.90;0.90;;;5.60;43.30;;;;;;10485708;28;20226;-72
2021/01/24 05:46:33;;;;;;;0.90;0.90;;;5.60;43.80;;;;;;10478016;28;20684;-72
2021/01/24 05:51:36;;;;;;;0.70;0.70;;;5.50;43.10;;;;;;10471984;28;20216;-72
2021/01/24 05:56:38;;;;;;;0.70;0.70;;;5.50;43.30;;;;;;10477157;28;20224;-72
2021/01/24 06:01:40;;;;;;;0.80;0.80;;;5.50;43.10;;;;;;10484887;28;20234;-72
2021/01/24 06:06:44;;;;;;;0.87;0.87;;;5.40;43.10;;;;;;10481076;28;20225;-72
2021/01/24 06:11:49;;;;;;;0.80;0.80;;;5.40;43.10;;;;;;10468758;28;20221;-72
2021/01/24 06:16:52;;;;;;;0.83;0.83;;;5.40;43.10;;;;;;10484821;28;20235;-72
2021/01/24 06:21:57;;;;;;;0.90;0.90;;;5.40;43.10;;;;;;10490498;28;20224;-73
2021/01/24 06:27:03;;;;;;;1.20;1.10;;;5.30;43.00;;;;;;10476098;28;20251;-72
2021/01/24 06:32:06;;;;;;;0.93;0.93;;;5.30;42.80;;;;;;10474779;28;20225;-72
2021/01/24 06:37:11;;;;;;;1.10;1.10;;;5.20;42.70;;;;;;10479223;28;20888;-72
2021/01/24 06:42:13;;;;;;;0.90;0.90;;;5.20;42.50;;;;;;10473919;28;20229;-72
2021/01/24 06:47:37;;;;;;;1.20;1.20;;;5.20;42.50;;;;;;10480067;28;20220;-72
2021/01/24 06:52:41;;;;;;;1.47;1.37;;;5.10;42.40;;;;;;10476141;28;20265;-73
2021/01/24 06:57:43;;;;;;;1.43;1.37;;;5.10;42.30;;;;;;10480091;28;20598;-74
2021/01/24 07:02:45;;;;;;;2.00;1.80;;;5.00;42.20;;;;;;10487864;28;20315;-73
2021/01/24 07:07:50;;;;;;;2.00;1.80;;;4.90;42.20;;;;;;10483384;28;20311;-73
2021/01/24 07:12:52;;;;;;;2.67;1.97;;;4.90;42.10;;;;;;10484807;28;20274;-73
2021/01/24 07:17:59;;;;;;;2.67;2.40;;;4.90;42.10;;;;;;10487434;28;20220;-73
2021/01/24 07:23:02;;;;;;;2.60;2.40;;;4.80;42.00;;;;;;10489476;28;20224;-73
2021/01/24 07:28:05;;;;;;;2.37;1.80;;;4.80;41.80;;;;;;10477062;28;20307;-73
2021/01/24 07:33:07;;;;;;;1.50;1.40;;;4.80;41.70;;;;;;10480032;28;20231;-73
2021/01/24 07:38:10;;;;;;;1.90;1.70;;;4.70;41.30;;;;;;10480389;28;20237;-73
2021/01/24 07:43:14;;;;;;;1.60;1.50;;;4.70;41.30;;;;;;10471573;28;20325;-73
2021/01/24 07:48:16;;;;;;;1.40;1.30;;;4.70;41.60;;;;;;10462468;28;20233;-73
2021/01/24 07:53:19;;;;;;;1.30;1.30;;;4.60;41.50;;;;;;10471219;28;20243;-73
2021/01/24 07:58:22;;;;;;;1.63;1.17;;;4.60;41.50;;;;;;10465389;28;20603;-73
2021/01/24 08:03:26;;;;;;;1.30;1.20;;;4.60;41.40;;;;;;10460645;28;20315;-72
2021/01/24 08:08:29;;;;;;;1.53;1.43;;;4.70;41.60;;;;;;10467062;28;20229;-72
2021/01/24 08:13:32;;;;;;;1.97;1.80;;;4.70;41.20;;;;;;10478601;28;20231;-72
2021/01/24 08:18:34;;;;;;;1.77;1.67;;;4.80;41.20;;;;;;10472332;28;20220;-73
2021/01/24 08:23:39;;;;;;;1.87;1.77;;;4.90;41.10;;;;;;10476498;28;20220;-72
2021/01/24 08:28:42;;;;;;;2.00;1.90;;;4.90;40.80;;;;;;10473288;28;20598;-72
2021/01/24 08:33:46;;;;;;;2.20;2.00;;;4.90;40.70;;;;;;10479799;28;20605;-72
2021/01/24 08:38:54;;;;;;;5.13;3.50;;;5.00;40.70;;;;;;10477494;28;20234;-72
2021/01/24 08:44:10;;;;;;;3.10;2.80;;;5.10;40.80;;;;;;10470679;28;20225;-72
2021/01/24 08:49:13;;;;;;;4.40;2.00;;;5.10;40.10;;;;;;10473016;28;20244;-71
2021/01/24 08:54:35;;;;;;;2.00;1.90;;;5.20;40.50;;;;;;10477313;28;20220;-71
2021/01/24 08:59:38;;;;;;;2.07;1.90;;;5.20;39.90;;;;;;10481004;28;20226;-72
2021/01/24 09:04:46;;;;;;;3.47;2.10;;;5.20;39.90;;;;;;10475307;28;20238;-72
2021/01/24 09:09:52;;;;;;;3.80;3.37;;;5.20;39.30;;;;;;10479675;28;20220;-71
2021/01/24 09:14:54;;;;;;;4.60;3.50;;;5.30;39.70;;;;;;10472671;28;20244;-71
2021/01/24 09:19:57;;;;;;;2.57;2.37;;;5.30;39.80;;;;;;10480157;28;20219;-72
2021/01/24 09:25:00;;;;;;;2.80;2.60;;;5.30;39.60;;;;;;10472403;28;20228;-71
2021/01/24 09:30:03;;;;;;;2.63;2.43;;;5.30;39.30;;;;;;10485485;28;20227;-71
2021/01/24 09:35:06;;;;;;;2.53;2.30;;;5.30;39.50;;;;;;10481493;28;20228;-72
2021/01/24 09:40:11;;;;;;;2.33;2.13;;;5.40;39.40;;;;;;10469454;28;20854;-71
2021/01/24 09:45:14;;;;;;;1.90;1.80;;;5.40;39.10;;;;;;10470227;28;20604;-71
2021/01/24 09:50:17;;;;;;;1.97;1.87;;;5.40;39.30;;;;;;10473377;28;20308;-71
2021/01/24 09:55:20;;;;;;;1.83;1.73;;;5.40;39.30;;;;;;10472440;28;20260;-71
2021/01/24 10:00:23;;;;;;;2.37;1.93;;;5.50;39.20;;;;;;10471190;28;20234;-71
2021/01/24 10:05:25;;;;;;;2.00;1.90;;;5.50;39.40;;;;;;10470289;28;20232;-71
2021/01/24 10:10:28;;;;;;;2.27;2.07;;;5.60;39.60;;;;;;10477385;28;20862;-71
2021/01/24 10:15:30;;;;;;;1.80;1.70;;;5.70;39.10;;;;;;10477188;28;20738;-71
2021/01/24 10:20:33;;;;;;;2.00;1.90;;;5.80;39.30;;;;;;10472221;28;20239;-71
2021/01/24 10:25:36;;;;;;;2.03;1.93;;;5.90;38.70;;;;;;10475877;28;20657;-72
2021/01/24 10:30:38;;;;;;;2.20;2.00;;;5.90;38.90;;;;;;10475535;28;20299;-71
2021/01/24 10:35:41;;;;;;;2.40;2.20;;;5.90;38.70;;;;;;10475242;28;20239;-69
2021/01/24 10:40:45;;;;;;;2.60;2.07;;;5.90;38.80;;;;;;10478266;28;20695;-72
2021/01/24 10:45:47;;;;;;;2.70;2.17;;;5.90;38.30;;;;;;10474541;28;20220;-71
2021/01/24 10:50:49;;;;;;;1.90;1.77;;;5.90;38.50;;;;;;10476868;28;20224;-71
2021/01/24 10:55:52;;;;;;;3.10;2.43;;;6.00;38.30;;;;;;10478042;28;20224;-71
2021/01/24 11:00:55;;;;;;;4.93;3.30;;;6.10;37.70;;;;;;10479487;28;20224;-71
2021/01/24 11:05:57;;;;;;;2.70;2.30;;;6.20;38.20;;;;;;10469882;28;20224;-68
2021/01/24 11:11:00;;;;;;;2.83;2.63;;;6.20;37.80;;;;;;10475286;28;20228;-68
2021/01/24 11:16:02;;;;;;;2.30;2.10;;;6.10;37.70;;;;;;10477407;28;20232;-71
2021/01/24 11:21:05;;;;;;;2.03;1.80;;;6.10;37.70;;;;;;10475928;28;20236;-70
2021/01/24 11:26:08;;;;;;;1.97;1.80;;;6.10;37.70;;;;;;10483011;28;20945;-71
2021/01/24 11:31:10;;;;;;;1.90;1.80;;;6.00;37.60;;;;;;10485307;28;20746;-71
2021/01/24 11:36:13;;;;;;;2.23;2.03;;;6.00;37.60;;;;;;10478444;28;20228;-71
2021/01/24 11:41:16;;;;;;;2.10;1.70;;;6.00;37.60;;;;;;10484319;28;20243;-71
2021/01/24 11:46:18;;;;;;;2.07;1.97;;;5.90;37.50;;;;;;10474981;28;20322;-71
2021/01/24 11:51:21;;;;;;;2.27;2.00;;;5.90;37.50;;;;;;10484401;28;20224;-71
2021/01/24 11:56:24;;;;;;;2.90;2.00;;;5.90;37.50;;;;;;10475705;28;20232;-72
2021/01/24 12:01:27;;;;;;;3.10;1.80;;;5.90;37.30;;;;;;10479483;28;20220;-71
2021/01/24 12:06:29;;;;;;;2.10;1.70;;;5.80;37.40;;;;;;10475594;28;20233;-68
2021/01/24 12:11:33;;;;;;;2.33;2.07;;;5.80;37.50;;;;;;10479005;28;20771;-68
2021/01/24 12:16:35;;;;;;;2.17;1.97;;;5.80;37.50;;;;;;10477387;28;20225;-68
2021/01/24 12:21:38;;;;;;;2.10;2.00;;;5.80;37.40;;;;;;10474440;28;20279;-68
2021/01/24 12:26:43;;;;;;;2.80;2.00;;;5.80;38.20;;;;;;10476481;28;20299;-68
2021/01/24 12:31:46;;;;;;;2.67;2.00;;;5.80;37.50;;;;;;10473738;28;20228;-68
2021/01/24 12:36:48;;;;;;;1.80;1.70;;;5.80;37.50;;;;;;10469879;28;20271;-68
2021/01/24 12:41:51;;;;;;;2.07;1.80;;;5.80;37.50;;;;;;10468304;28;20235;-68
2021/01/24 12:46:53;;;;;;;2.03;1.93;;;5.80;37.40;;;;;;10468219;28;20233;-68
2021/01/24 12:51:56;;;;;;;2.00;1.90;;;5.80;37.50;;;;;;10466441;28;20224;-68
2021/01/24 12:56:59;;;;;;;1.87;1.70;;;5.80;37.40;;;;;;10464549;28;20316;-67
2021/01/24 13:02:04;;;;;;;1.80;1.70;;;5.80;37.10;;;;;;10462525;28;20599;-70
2021/01/24 13:07:07;;;;;;;1.90;1.70;;;5.80;37.50;;;;;;10466550;28;23328;-68
2021/01/24 13:12:11;;;;;;;2.17;1.70;;;5.80;37.40;;;;;;10467032;28;20223;-68
2021/01/24 13:17:13;;;;;;;1.80;1.70;;;5.90;37.50;;;;;;10465573;28;20224;-68
2021/01/24 13:22:15;;;;;;;2.63;2.00;;;5.80;37.40;;;;;;10469812;28;20219;-71
2021/01/24 13:27:18;;;;;;;2.23;2.03;;;5.90;37.50;;;;;;10475471;28;20602;-71
2021/01/24 13:32:21;;;;;;;1.60;1.50;;;5.80;37.50;;;;;;10479708;28;20316;-71
2021/01/24 13:37:24;;;;;;;2.27;2.07;;;5.70;37.40;;;;;;10475509;28;20225;-68
2021/01/24 13:42:27;;;;;;;2.43;2.10;;;5.70;37.40;;;;;;10468679;28;20235;-68
2021/01/24 13:47:29;;;;;;;3.00;2.43;;;5.60;37.40;;;;;;10472107;28;20260;-68
2021/01/24 13:52:31;;;;;;;2.67;2.43;;;5.50;37.50;;;;;;10472732;28;20220;-68
2021/01/24 13:57:34;;;;;;;2.03;1.90;;;5.40;37.60;;;;;;10474782;28;20223;-68
2021/01/24 14:02:37;;;;;;;3.47;2.00;;;5.40;37.90;;;;;;10476967;28;20216;-68
2021/01/24 14:07:40;;;;;;;2.70;2.13;;;5.40;37.90;;;;;;10460941;28;20243;-68
2021/01/24 14:12:43;;;;;;;4.17;3.60;;;5.30;38.20;;;;;;10466789;28;20220;-71
2021/01/24 14:17:45;;;;;;;3.27;2.10;;;5.20;38.20;;;;;;10474684;28;20229;-71
2021/01/24 14:22:48;;;;;;;2.83;2.23;;;5.20;38.20;;;;;;10474739;28;20216;-71
2021/01/24 14:27:52;;;;;;;2.47;1.70;;;5.10;38.40;;;;;;10467351;28;20225;-71
2021/01/24 14:32:54;;;;;;;2.17;1.97;;;5.10;38.50;;;;;;10475193;28;20569;-68
2021/01/24 14:37:56;;;;;;;3.53;2.43;;;5.10;38.70;;;;;;10477500;28;20235;-67
2021/01/24 14:43:00;;;;;;;3.40;2.20;;;5.00;38.60;;;;;;10462165;28;20689;-67
2021/01/24 14:48:09;;;;;;;2.97;1.60;;;5.00;38.70;;;;;;10474608;28;20243;-71
2021/01/24 14:53:11;;;;;;;1.60;1.50;;;5.00;39.30;;;;;;10482132;28;20353;-71
2021/01/24 14:58:14;;;;;;;1.50;1.40;;;5.00;38.60;;;;;;10471273;28;20231;-71
2021/01/24 15:03:16;;;;;;;1.57;1.47;;;5.00;38.70;;;;;;10480875;28;20230;-71
2021/01/24 15:08:19;;;;;;;1.73;1.63;;;5.00;38.50;;;;;;10472896;28;20647;-72
2021/01/24 15:13:22;;;;;;;1.83;1.60;;;5.00;38.40;;;;;;10484922;28;20327;-71
2021/01/24 15:18:24;;;;;;;2.73;2.13;;;5.00;38.40;;;;;;10482726;28;20302;-72
2021/01/24 15:23:27;;;;;;;1.57;1.47;;;5.00;38.20;;;;;;10479328;28;20890;-72
2021/01/24 15:28:31;;;;;;;2.30;1.70;;;5.00;38.30;;;;;;10476382;28;20307;-68
2021/01/24 15:33:33;;;;;;;1.57;1.30;;;5.00;38.30;;;;;;10480462;28;20228;-67
2021/01/24 15:38:35;;;;;;;2.43;1.40;;;5.00;38.20;;;;;;10478913;28;20231;-68
2021/01/24 15:43:38;;;;;;;1.53;1.33;;;4.90;38.30;;;;;;10483843;28;20224;-68
2021/01/24 15:48:40;;;;;;;1.57;1.47;;;4.90;38.20;;;;;;10485750;28;20224;-68
2021/01/24 15:53:43;;;;;;;2.50;2.10;;;4.90;38.40;;;;;;10478207;28;20673;-67
2021/01/24 15:58:46;;;;;;;2.07;1.87;;;5.00;38.40;;;;;;10472069;28;20228;-67
2021/01/24 16:03:49;;;;;;;1.60;1.50;;;5.00;38.10;;;;;;10478574;28;20239;-67
2021/01/24 16:08:51;;;;;;;1.60;1.50;;;5.00;38.00;;;;;;10478642;28;20271;-67
2021/01/24 16:13:54;;;;;;;2.67;1.40;;;5.10;38.00;;;;;;10474066;28;20354;-68
2021/01/24 16:18:57;;;;;;;1.50;1.40;;;5.10;38.00;;;;;;10480613;28;20240;-71
2021/01/24 16:23:59;;;;;;;1.97;1.67;;;5.10;38.10;;;;;;10489119;28;20220;-72
2021/01/24 16:29:02;;;;;;;1.60;1.50;;;5.10;38.00;;;;;;10477975;28;20692;-69
2021/01/24 16:34:05;;;;;;;4.07;1.67;;;5.20;38.00;;;;;;10478476;28;20223;-72
2021/01/24 16:39:07;;;;;;;2.97;1.90;;;5.10;37.90;;;;;;10476930;28;20331;-71
2021/01/24 16:44:10;;;;;;;2.20;1.83;;;5.20;38.20;;;;;;10478422;28;20228;-71
2021/01/24 16:49:12;;;;;;;2.60;1.90;;;5.20;37.70;;;;;;10479280;28;20239;-72
2021/01/24 16:54:15;;;;;;;1.93;1.73;;;5.20;37.90;;;;;;10463121;28;20230;-71
2021/01/24 16:59:18;;;;;;;1.90;1.80;;;5.20;37.70;;;;;;10474819;28;20304;-71
2021/01/24 17:04:20;;;;;;;2.10;1.90;;;5.20;37.60;;;;;;10469897;28;20731;-72
2021/01/24 17:09:22;;;;;;;2.00;1.80;;;5.20;37.80;;;;;;10484272;28;20258;-72
2021/01/24 17:14:26;;;;;;;2.80;2.17;;;5.20;37.60;;;;;;10470781;28;20230;-71
2021/01/24 17:19:28;;;;;;;2.00;1.83;;;5.20;37.40;;;;;;10473080;28;20228;-72
2021/01/24 17:24:30;;;;;;;2.33;1.70;;;5.20;37.50;;;;;;10474305;28;20255;-72
2021/01/24 17:29:33;;;;;;;1.93;1.70;;;5.20;37.70;;;;;;10481182;28;20600;-72
2021/01/24 17:34:35;;;;;;;1.60;1.50;;;5.20;37.40;;;;;;10477948;28;20216;-72
2021/01/24 17:39:40;;;;;;;2.03;1.60;;;5.20;37.40;;;;;;10476998;28;20723;-72
2021/01/24 17:44:43;;;;;;;2.07;1.70;;;5.20;37.60;;;;;;10470745;28;20232;-72
2021/01/24 17:49:47;;;;;;;2.10;1.83;;;5.20;37.50;;;;;;10474456;28;20594;-72
2021/01/24 17:54:49;;;;;;;3.50;2.57;;;5.20;37.40;;;;;;10475643;28;20232;-72
2021/01/24 17:59:52;;;;;;;2.77;1.80;;;5.10;37.50;;;;;;10471371;28;20217;-72
2021/01/24 18:04:54;;;;;;;1.90;1.70;;;5.10;37.50;;;;;;10477911;28;20229;-72
2021/01/24 18:09:56;;;;;;;1.80;1.70;;;5.10;37.30;;;;;;10471213;28;20224;-72
2021/01/24 18:15:00;;;;;;;3.67;3.00;;;5.10;37.00;;;;;;10476223;28;20225;-72
2021/01/24 18:20:02;;;;;;;2.63;2.00;;;5.10;36.90;;;;;;10478338;28;20228;-71
2021/01/24 18:25:07;;;;;;;1.83;1.63;;;5.10;37.10;;;;;;10482198;28;20233;-71
2021/01/24 18:30:16;;;;;;;2.13;1.93;;;5.10;37.00;;;;;;10470761;28;20693;-72
2021/01/24 18:35:18;;;;;;;1.97;1.83;;;5.10;36.90;;;;;;10482384;28;20244;-71
2021/01/24 18:40:21;;;;;;;1.90;1.80;;;5.10;36.90;;;;;;10480584;28;20220;-72
2021/01/24 18:45:24;;;;;;;3.10;1.63;;;5.00;36.80;;;;;;10473043;28;20224;-72
2021/01/24 18:50:26;;;;;;;1.90;1.70;;;5.00;36.80;;;;;;10478184;28;20250;-72
2021/01/24 18:55:28;;;;;;;2.53;1.60;;;5.00;36.80;;;;;;10476984;28;20722;-72
2021/01/24 19:00:32;;;;;;;1.90;1.70;;;5.00;36.90;;;;;;10481085;28;20220;-72
2021/01/24 19:05:34;;;;;;;2.20;2.00;;;5.00;36.80;;;;;;10476530;28;20231;-72
2021/01/24 19:10:36;;;;;;;1.87;1.63;;;5.00;36.80;;;;;;10474994;28;20385;-72
2021/01/24 19:15:39;;;;;;;3.13;1.77;;;5.00;36.80;;;;;;10475448;28;20230;-72
2021/01/24 19:20:41;;;;;;;2.07;1.97;;;5.00;36.80;;;;;;10470310;28;20227;-72
2021/01/24 19:25:44;;;;;;;2.10;1.90;;;5.00;36.80;;;;;;10476874;28;20238;-72
2021/01/24 19:30:47;;;;;;;2.00;1.87;;;5.10;36.90;;;;;;10480826;28;20227;-72
2021/01/24 19:35:49;;;;;;;4.50;2.00;;;5.10;37.60;;;;;;10482334;28;20791;-72
2021/01/24 19:40:52;;;;;;;1.80;1.70;;;5.10;36.90;;;;;;10478195;28;20940;-72
2021/01/24 19:45:56;;;;;;;2.00;1.80;;;5.00;36.80;;;;;;10478070;28;20704;-71
2021/01/24 19:50:58;;;;;;;3.00;1.70;;;5.10;36.90;;;;;;10477213;28;20268;-72
2021/01/24 19:56:00;;;;;;;4.90;3.23;;;5.10;36.90;;;;;;10477217;28;20229;-72
2021/01/24 20:01:04;;;;;;;2.93;2.73;;;5.10;36.90;;;;;;10485128;28;20226;-72
2021/01/24 20:06:06;;;;;;;2.40;2.17;;;5.10;36.90;;;;;;10480767;28;20735;-71
2021/01/24 20:11:09;;;;;;;2.53;2.33;;;5.10;36.90;;;;;;10475451;28;20224;-71
2021/01/24 20:16:12;;;;;;;3.63;3.27;;;5.10;36.90;;;;;;10477697;28;20232;-71
2021/01/24 20:21:15;;;;;;;2.80;2.40;;;5.10;36.90;;;;;;10479091;28;20244;-71
2021/01/24 20:26:18;;;;;;;3.57;2.20;;;5.10;36.90;;;;;;10480396;28;20792;-71
2021/01/24 20:31:33;;;;;;;3.23;2.10;;;5.00;36.80;;;;;;10479772;28;20611;-71
2021/01/24 20:36:36;;;;;;;2.83;2.57;;;5.00;36.80;;;;;;10481552;28;20216;-71
2021/01/24 20:41:38;;;;;;;2.40;2.20;;;5.00;36.80;;;;;;10483375;28;20216;-71
2021/01/24 20:46:42;;;;;;;2.30;2.10;;;5.00;36.80;;;;;;10479240;28;20734;-71
2021/01/24 20:51:44;;;;;;;2.80;2.10;;;5.00;36.80;;;;;;10481675;28;20224;-71
2021/01/24 20:56:47;;;;;;;5.30;2.67;;;5.00;36.80;;;;;;10478834;28;20220;-71
2021/01/24 21:01:50;;;;;;;3.33;2.17;;;5.00;36.80;;;;;;10482694;28;20212;-71
2021/01/24 21:06:53;;;;;;;2.87;1.80;;;5.00;36.80;;;;;;10476186;28;20270;-70
2021/01/24 21:11:55;;;;;;;3.27;2.23;;;5.00;36.80;;;;;;10480319;28;20262;-69
2021/01/24 21:16:58;;;;;;;3.40;2.20;;;5.00;36.80;;;;;;10477537;28;20224;-69
2021/01/24 21:22:01;;;;;;;3.00;2.70;;;5.10;36.90;;;;;;10468587;28;20229;-70
2021/01/24 21:27:03;;;;;;;2.83;2.53;;;5.10;36.90;;;;;;10469222;28;20235;-69
2021/01/24 21:32:06;;;;;;;2.77;2.17;;;5.10;36.90;;;;;;10459642;28;20700;-69
2021/01/24 21:37:09;;;;;;;3.90;2.03;;;5.10;36.90;;;;;;10479646;28;20266;-69
2021/01/24 21:42:11;;;;;;;2.80;2.33;;;5.00;36.80;;;;;;10466775;28;20585;-69
2021/01/24 21:47:14;;;;;;;2.60;2.20;;;5.00;36.80;;;;;;10470443;28;20232;-69
2021/01/24 21:52:17;;;;;;;3.33;2.60;;;5.00;36.60;;;;;;10466252;28;20807;-68
2021/01/24 21:57:19;;;;;;;2.60;2.40;;;4.90;36.60;;;;;;10464214;28;20220;-68
2021/01/24 22:02:22;;;;;;;2.93;2.20;;;4.80;36.60;;;;;;10462702;28;20242;-68
2021/01/24 22:07:25;;;;;;;2.10;2.00;;;4.70;36.60;;;;;;10468738;28;20232;-69
2021/01/24 22:12:27;;;;;;;2.43;1.90;;;4.70;36.60;;;;;;10475816;28;20239;-72
2021/01/24 22:17:30;;;;;;;2.20;2.00;;;4.60;36.40;;;;;;10467215;28;20323;-73
2021/01/24 22:22:33;;;;;;;3.13;2.20;;;4.60;36.50;;;;;;10473232;28;20259;-73
2021/01/24 22:27:35;;;;;;;2.57;2.10;;;4.50;36.40;;;;;;10469717;28;20315;-74
2021/01/24 22:32:38;;;;;;;2.63;2.00;;;4.60;36.40;;;;;;10480910;28;20223;-73
2021/01/24 22:37:41;;;;;;;2.20;2.00;;;4.60;36.40;;;;;;10483242;28;20240;-73
2021/01/24 22:42:44;;;;;;;1.77;1.67;;;4.50;36.40;;;;;;10479538;28;20221;-73
2021/01/24 22:47:47;;;;;;;2.40;2.00;;;4.40;36.30;;;;;;10478983;28;20216;-73
2021/01/24 22:52:50;;;;;;;2.43;1.80;;;4.40;36.30;;;;;;10484017;28;20251;-73
2021/01/24 22:57:52;;;;;;;3.37;2.03;;;4.30;36.20;;;;;;10471804;28;20248;-73
2021/01/24 23:02:55;;;;;;;2.90;2.20;;;4.30;36.20;;;;;;10479313;28;20221;-73
2021/01/24 23:07:58;;;;;;;2.57;2.20;;;4.30;36.20;;;;;;10481561;28;20242;-73
2021/01/24 23:13:00;;;;;;;2.00;1.90;;;4.30;36.20;;;;;;10471975;28;20238;-73
2021/01/24 23:18:04;;;;;;;2.97;2.50;;;4.20;36.10;;;;;;10471633;28;20229;-72
2021/01/24 23:23:07;;;;;;;2.30;2.00;;;4.20;36.10;;;;;;10460936;28;20588;-72
2021/01/24 23:28:09;;;;;;;2.17;1.97;;;4.10;36.00;;;;;;10479283;28;20238;-73
2021/01/24 23:33:12;;;;;;;1.80;1.70;;;4.00;35.90;;;;;;10479472;28;20231;-73
2021/01/24 23:38:14;;;;;;;3.33;2.10;;;3.90;35.90;;;;;;10473674;28;20224;-72
2021/01/24 23:43:16;;;;;;;2.43;2.17;;;3.90;35.90;;;;;;10481372;28;20229;-73
2021/01/24 23:48:20;;;;;;;2.50;2.27;;;3.90;35.90;;;;;;10482456;28;20319;-73
2021/01/24 23:53:22;;;;;;;2.47;2.20;;;3.80;35.80;;;;;;10474454;28;20590;-73
2021/01/24 23:58:25;;;;;;;3.17;2.30;;;3.70;35.70;;;;;;10477194;28;20315;-73
